Aérodrome :
LOGIN :

S'inscrire | Disclaimer

   EN    FR    IT 

 










Légende :    VFR   VFR Marginal   IFR   IFR Intensif   IFR Très Intensif
Visi : 
Plafond : 
>= 8 km
>= 3000ft
5 à 8 km
1000 à 3000 ft
1500m à 5 km
500 à 1000 ft
800 à 1500m
200 à 500 ft
< 800m
< 200 ft
Symboles :   Orages  Brouillard  Fortes neiges  Fortes précipitations  Vent > 20 kt
SIGMETs :   Divers  Orages  Givrage  Turbulence  Onde Orograph.  Cendres Volcan.






- Altitude de l'aérodrome : 249 ft


EGOS - RAF Shawbury

DERNIER METAR :
  • 021450Z 34008KT 9999 FEW026 SCT050 18/11 Q1012 NOSIG RMK BLU BLU

METARs EXPIRÉS :
  • 021420Z 34009KT 9999 FEW028 19/11 Q1011 NOSIG RMK BLU BLU
  • 021350Z 33010KT 9999 FEW028 19/12 Q1011 NOSIG RMK BLU BLU
  • 021320Z 31009KT 9999 FEW024 BKN047 18/12 Q1011 NOSIG RMK BLU BLU
  • 021250Z 30009KT 9999 FEW022 SCT045 BKN080 18/12 Q1011 TEMPO SCT022 RMK BLU TEMPO WHT
  • 021220Z 32007KT 9999 FEW018 BKN050 17/13 Q1011 TEMPO SCT020 RMK BLU TEMPO WHT

TAF TAF EGOS
Valide du 02 à 15h jusqu'au 02 à 19h UTC


021335Z 0215/0219 33008KT 9999 FEW026 BKN040



MET'MAP, la Météo Aéronautique d'un coup d'oeil ! - Copyright ORBIFLY Décembre 2007 - Disclaimer

ORBIFLY MET'MAP TEAM :

Programmation & Développement : Alexandra Zaïnal
Sur une idée originale de : Baudouin d'Aumeries
Assistance à la programmation : Marc-Olivier Méhu
Soutien technique & logistique : Manuel Goepfert

Contact : metmap@orbifly.com




SOURCES & CREDITS :

   NOAA